sensor_id;sensor_type;location;lat;lon;timestamp;temperature;humidity
58413;DHT22;44209;52.952;6.790;2023-04-10T00:01:35;7.70;99.90
58413;DHT22;44209;52.952;6.790;2023-04-10T00:04:03;7.70;99.90
58413;DHT22;44209;52.952;6.790;2023-04-10T00:06:30;7.70;99.90
58413;DHT22;44209;52.952;6.790;2023-04-10T00:08:59;7.70;99.90
58413;DHT22;44209;52.952;6.790;2023-04-10T00:11:26;7.70;99.90
58413;DHT22;44209;52.952;6.790;2023-04-10T00:13:52;7.60;99.90
58413;DHT22;44209;52.952;6.790;2023-04-10T00:16:19;7.60;99.90
58413;DHT22;44209;52.952;6.790;2023-04-10T00:18:45;7.60;99.90
58413;DHT22;44209;52.952;6.790;2023-04-10T00:21:11;7.60;99.90
58413;DHT22;44209;52.952;6.790;2023-04-10T00:23:37;7.60;99.90
58413;DHT22;44209;52.952;6.790;2023-04-10T00:26:03;7.60;99.90
58413;DHT22;44209;52.952;6.790;2023-04-10T00:28:29;7.50;99.90
58413;DHT22;44209;52.952;6.790;2023-04-10T00:30:54;7.50;99.90
58413;DHT22;44209;52.952;6.790;2023-04-10T00:33:20;7.50;99.90
58413;DHT22;44209;52.952;6.790;2023-04-10T00:35:46;7.50;99.90
58413;DHT22;44209;52.952;6.790;2023-04-10T00:38:12;7.50;99.90
58413;DHT22;44209;52.952;6.790;2023-04-10T00:40:37;7.40;99.90
58413;DHT22;44209;52.952;6.790;2023-04-10T00:43:03;7.40;99.90
58413;DHT22;44209;52.952;6.790;2023-04-10T00:45:29;7.40;99.90
58413;DHT22;44209;52.952;6.790;2023-04-10T00:47:55;7.40;99.90
58413;DHT22;44209;52.952;6.790;2023-04-10T00:50:21;7.40;99.90
58413;DHT22;44209;52.952;6.790;2023-04-10T00:52:48;7.40;99.90
58413;DHT22;44209;52.952;6.790;2023-04-10T00:55:14;7.30;99.90
58413;DHT22;44209;52.952;6.790;2023-04-10T00:57:44;7.30;99.90
58413;DHT22;44209;52.952;6.790;2023-04-10T01:00:12;7.30;99.90
58413;DHT22;44209;52.952;6.790;2023-04-10T01:02:38;7.20;99.90
58413;DHT22;44209;52.952;6.790;2023-04-10T01:05:04;7.20;99.90
58413;DHT22;44209;52.952;6.790;2023-04-10T01:13:10;7.20;99.90
58413;DHT22;44209;52.952;6.790;2023-04-10T01:15:46;7.10;99.90
58413;DHT22;44209;52.952;6.790;2023-04-10T01:18:33;7.20;99.90
58413;DHT22;44209;52.952;6.790;2023-04-10T01:21:01;7.20;99.90
58413;DHT22;44209;52.952;6.790;2023-04-10T01:29:03;7.20;99.90
58413;DHT22;44209;52.952;6.790;2023-04-10T01:34:14;7.10;99.90
58413;DHT22;44209;52.952;6.790;2023-04-10T01:37:04;7.10;99.90
58413;DHT22;44209;52.952;6.790;2023-04-10T01:39:36;7.10;99.90
58413;DHT22;44209;52.952;6.790;2023-04-10T01:42:05;7.10;99.90
58413;DHT22;44209;52.952;6.790;2023-04-10T01:44:33;7.10;99.90
58413;DHT22;44209;52.952;6.790;2023-04-10T01:47:04;7.00;99.90
58413;DHT22;44209;52.952;6.790;2023-04-10T01:49:32;7.00;99.90
58413;DHT22;44209;52.952;6.790;2023-04-10T01:51:59;7.00;99.90
58413;DHT22;44209;52.952;6.790;2023-04-10T01:54:31;7.00;99.90
58413;DHT22;44209;52.952;6.790;2023-04-10T01:56:59;7.00;99.90
58413;DHT22;44209;52.952;6.790;2023-04-10T01:59:25;6.90;99.90
58413;DHT22;44209;52.952;6.790;2023-04-10T02:01:58;6.90;99.90
58413;DHT22;44209;52.952;6.790;2023-04-10T02:04:24;6.90;99.90
58413;DHT22;44209;52.952;6.790;2023-04-10T02:07:04;6.90;99.90
58413;DHT22;44209;52.952;6.790;2023-04-10T02:12:14;6.90;99.90
58413;DHT22;44209;52.952;6.790;2023-04-10T02:14:44;6.90;99.90
58413;DHT22;44209;52.952;6.790;2023-04-10T02:17:13;6.90;99.90
58413;DHT22;44209;52.952;6.790;2023-04-10T02:19:40;6.80;99.90
58413;DHT22;44209;52.952;6.790;2023-04-10T02:22:07;6.80;99.90
58413;DHT22;44209;52.952;6.790;2023-04-10T02:24:34;6.80;99.90
58413;DHT22;44209;52.952;6.790;2023-04-10T02:27:00;6.80;99.90
58413;DHT22;44209;52.952;6.790;2023-04-10T02:29:26;6.80;99.90
58413;DHT22;44209;52.952;6.790;2023-04-10T02:31:52;6.80;99.90
58413;DHT22;44209;52.952;6.790;2023-04-10T02:34:17;6.80;99.90
58413;DHT22;44209;52.952;6.790;2023-04-10T02:36:43;6.80;99.90
58413;DHT22;44209;52.952;6.790;2023-04-10T02:39:09;6.80;99.90
58413;DHT22;44209;52.952;6.790;2023-04-10T02:41:34;6.80;99.90
58413;DHT22;44209;52.952;6.790;2023-04-10T02:44:00;6.80;99.90
58413;DHT22;44209;52.952;6.790;2023-04-10T02:46:26;6.80;99.90
58413;DHT22;44209;52.952;6.790;2023-04-10T02:48:52;6.80;99.90
58413;DHT22;44209;52.952;6.790;2023-04-10T02:51:18;6.80;99.90
58413;DHT22;44209;52.952;6.790;2023-04-10T02:53:43;6.80;99.90
58413;DHT22;44209;52.952;6.790;2023-04-10T02:56:09;6.80;99.90
58413;DHT22;44209;52.952;6.790;2023-04-10T02:58:37;6.80;99.90
58413;DHT22;44209;52.952;6.790;2023-04-10T03:01:04;6.80;99.90
58413;DHT22;44209;52.952;6.790;2023-04-10T03:03:31;6.80;99.90
58413;DHT22;44209;52.952;6.790;2023-04-10T03:05:57;6.80;99.90
58413;DHT22;44209;52.952;6.790;2023-04-10T03:08:23;6.70;99.90
58413;DHT22;44209;52.952;6.790;2023-04-10T03:10:49;6.70;99.90
58413;DHT22;44209;52.952;6.790;2023-04-10T03:13:15;6.80;99.90
58413;DHT22;44209;52.952;6.790;2023-04-10T03:15:40;6.70;99.90
58413;DHT22;44209;52.952;6.790;2023-04-10T03:18:07;6.70;99.90
58413;DHT22;44209;52.952;6.790;2023-04-10T03:20:35;6.70;99.90
58413;DHT22;44209;52.952;6.790;2023-04-10T03:23:01;6.70;99.90
58413;DHT22;44209;52.952;6.790;2023-04-10T03:25:28;6.70;99.90
58413;DHT22;44209;52.952;6.790;2023-04-10T03:27:56;6.70;99.90
58413;DHT22;44209;52.952;6.790;2023-04-10T03:30:22;6.60;99.90
58413;DHT22;44209;52.952;6.790;2023-04-10T03:32:47;6.60;99.90
58413;DHT22;44209;52.952;6.790;2023-04-10T03:35:13;6.60;99.90
58413;DHT22;44209;52.952;6.790;2023-04-10T03:37:39;6.60;99.90
58413;DHT22;44209;52.952;6.790;2023-04-10T03:40:08;6.60;99.90
58413;DHT22;44209;52.952;6.790;2023-04-10T03:42:34;6.60;99.90
58413;DHT22;44209;52.952;6.790;2023-04-10T03:45:00;6.50;99.90
58413;DHT22;44209;52.952;6.790;2023-04-10T03:47:29;6.50;99.90
58413;DHT22;44209;52.952;6.790;2023-04-10T03:49:56;6.40;99.90
58413;DHT22;44209;52.952;6.790;2023-04-10T03:52:23;6.40;99.90
58413;DHT22;44209;52.952;6.790;2023-04-10T03:54:49;6.40;99.90
58413;DHT22;44209;52.952;6.790;2023-04-10T03:57:15;6.40;99.90
58413;DHT22;44209;52.952;6.790;2023-04-10T03:59:43;6.30;99.90
58413;DHT22;44209;52.952;6.790;2023-04-10T04:02:08;6.30;99.90
58413;DHT22;44209;52.952;6.790;2023-04-10T04:04:35;6.30;99.90
58413;DHT22;44209;52.952;6.790;2023-04-10T04:07:01;6.30;99.90
58413;DHT22;44209;52.952;6.790;2023-04-10T04:09:26;6.30;99.90
58413;DHT22;44209;52.952;6.790;2023-04-10T04:11:52;6.30;99.90
58413;DHT22;44209;52.952;6.790;2023-04-10T04:14:18;6.30;99.90
58413;DHT22;44209;52.952;6.790;2023-04-10T04:16:43;6.30;99.90
58413;DHT22;44209;52.952;6.790;2023-04-10T04:19:09;6.30;99.90
58413;DHT22;44209;52.952;6.790;2023-04-10T04:21:35;6.30;99.90
58413;DHT22;44209;52.952;6.790;2023-04-10T04:24:00;6.30;99.90
58413;DHT22;44209;52.952;6.790;2023-04-10T04:26:26;6.30;99.90
58413;DHT22;44209;52.952;6.790;2023-04-10T04:28:52;6.20;99.90
58413;DHT22;44209;52.952;6.790;2023-04-10T04:31:17;6.30;99.90
58413;DHT22;44209;52.952;6.790;2023-04-10T04:33:43;6.20;99.90
58413;DHT22;44209;52.952;6.790;2023-04-10T04:36:09;6.20;99.90
58413;DHT22;44209;52.952;6.790;2023-04-10T04:38:34;6.20;99.90
58413;DHT22;44209;52.952;6.790;2023-04-10T04:41:00;6.20;99.90
58413;DHT22;44209;52.952;6.790;2023-04-10T04:43:26;6.20;99.90
58413;DHT22;44209;52.952;6.790;2023-04-10T04:45:51;6.20;99.90
58413;DHT22;44209;52.952;6.790;2023-04-10T04:48:17;6.20;99.90
58413;DHT22;44209;52.952;6.790;2023-04-10T04:50:43;6.20;99.90
58413;DHT22;44209;52.952;6.790;2023-04-10T04:53:09;6.20;99.90
58413;DHT22;44209;52.952;6.790;2023-04-10T04:55:34;6.20;99.90
58413;DHT22;44209;52.952;6.790;2023-04-10T04:58:00;6.20;99.90
58413;DHT22;44209;52.952;6.790;2023-04-10T05:00:26;6.20;99.90
58413;DHT22;44209;52.952;6.790;2023-04-10T05:02:51;6.20;99.90
58413;DHT22;44209;52.952;6.790;2023-04-10T05:05:17;6.20;99.90
58413;DHT22;44209;52.952;6.790;2023-04-10T05:07:43;6.20;99.90
58413;DHT22;44209;52.952;6.790;2023-04-10T05:10:08;6.20;99.90
58413;DHT22;44209;52.952;6.790;2023-04-10T05:12:34;6.30;99.90
58413;DHT22;44209;52.952;6.790;2023-04-10T05:15:00;6.30;99.90
58413;DHT22;44209;52.952;6.790;2023-04-10T05:17:26;6.30;99.90
58413;DHT22;44209;52.952;6.790;2023-04-10T05:19:52;6.40;99.90
58413;DHT22;44209;52.952;6.790;2023-04-10T05:22:17;6.50;99.90
58413;DHT22;44209;52.952;6.790;2023-04-10T05:24:43;6.60;99.90
58413;DHT22;44209;52.952;6.790;2023-04-10T05:27:09;6.70;99.90
58413;DHT22;44209;52.952;6.790;2023-04-10T05:29:34;6.80;99.90
58413;DHT22;44209;52.952;6.790;2023-04-10T05:32:00;6.90;99.90
58413;DHT22;44209;52.952;6.790;2023-04-10T05:34:26;7.00;99.90
58413;DHT22;44209;52.952;6.790;2023-04-10T05:36:52;7.00;99.90
58413;DHT22;44209;52.952;6.790;2023-04-10T05:39:17;7.10;99.90
58413;DHT22;44209;52.952;6.790;2023-04-10T05:41:43;7.20;99.90
58413;DHT22;44209;52.952;6.790;2023-04-10T05:44:09;7.30;99.90
58413;DHT22;44209;52.952;6.790;2023-04-10T05:46:34;7.40;99.90
58413;DHT22;44209;52.952;6.790;2023-04-10T05:49:00;7.40;99.90
58413;DHT22;44209;52.952;6.790;2023-04-10T05:51:26;7.50;99.90
58413;DHT22;44209;52.952;6.790;2023-04-10T05:53:53;7.50;99.90
58413;DHT22;44209;52.952;6.790;2023-04-10T05:56:19;7.60;99.90
58413;DHT22;44209;52.952;6.790;2023-04-10T05:58:45;7.60;99.90
58413;DHT22;44209;52.952;6.790;2023-04-10T06:01:11;7.70;99.90
58413;DHT22;44209;52.952;6.790;2023-04-10T06:03:38;7.80;99.90
58413;DHT22;44209;52.952;6.790;2023-04-10T06:06:05;7.90;99.90
58413;DHT22;44209;52.952;6.790;2023-04-10T06:08:31;7.90;99.90
58413;DHT22;44209;52.952;6.790;2023-04-10T06:10:57;8.00;99.90
58413;DHT22;44209;52.952;6.790;2023-04-10T06:13:22;8.00;99.90
58413;DHT22;44209;52.952;6.790;2023-04-10T06:15:49;8.10;99.90
58413;DHT22;44209;52.952;6.790;2023-04-10T06:18:14;8.20;99.90
58413;DHT22;44209;52.952;6.790;2023-04-10T06:20:40;8.30;99.90
58413;DHT22;44209;52.952;6.790;2023-04-10T06:23:06;8.40;99.90
58413;DHT22;44209;52.952;6.790;2023-04-10T06:25:31;8.50;99.90
58413;DHT22;44209;52.952;6.790;2023-04-10T06:27:57;8.60;99.90
58413;DHT22;44209;52.952;6.790;2023-04-10T06:30:23;8.80;99.90
58413;DHT22;44209;52.952;6.790;2023-04-10T06:32:49;8.90;99.90
58413;DHT22;44209;52.952;6.790;2023-04-10T06:35:14;9.00;99.90
58413;DHT22;44209;52.952;6.790;2023-04-10T06:37:41;9.10;99.90
58413;DHT22;44209;52.952;6.790;2023-04-10T06:40:09;9.20;99.90
58413;DHT22;44209;52.952;6.790;2023-04-10T06:42:35;9.30;99.90
58413;DHT22;44209;52.952;6.790;2023-04-10T06:45:02;9.30;99.90
58413;DHT22;44209;52.952;6.790;2023-04-10T06:47:28;9.40;99.90
58413;DHT22;44209;52.952;6.790;2023-04-10T06:49:54;9.40;99.90
58413;DHT22;44209;52.952;6.790;2023-04-10T06:52:20;9.50;99.90
58413;DHT22;44209;52.952;6.790;2023-04-10T06:54:45;9.50;99.90
58413;DHT22;44209;52.952;6.790;2023-04-10T06:57:11;9.50;99.90
58413;DHT22;44209;52.952;6.790;2023-04-10T06:59:37;9.50;99.90
58413;DHT22;44209;52.952;6.790;2023-04-10T07:02:03;9.60;99.90
58413;DHT22;44209;52.952;6.790;2023-04-10T07:04:29;9.60;99.90
58413;DHT22;44209;52.952;6.790;2023-04-10T07:06:55;9.60;99.90
58413;DHT22;44209;52.952;6.790;2023-04-10T07:09:21;9.60;99.90
58413;DHT22;44209;52.952;6.790;2023-04-10T07:11:47;9.60;99.90
58413;DHT22;44209;52.952;6.790;2023-04-10T07:14:12;9.60;99.90
58413;DHT22;44209;52.952;6.790;2023-04-10T07:16:38;9.60;99.90
58413;DHT22;44209;52.952;6.790;2023-04-10T07:19:04;9.60;99.90
58413;DHT22;44209;52.952;6.790;2023-04-10T07:21:30;9.60;99.90
58413;DHT22;44209;52.952;6.790;2023-04-10T07:23:57;9.70;99.90
58413;DHT22;44209;52.952;6.790;2023-04-10T07:26:23;9.70;99.90
58413;DHT22;44209;52.952;6.790;2023-04-10T07:28:50;9.80;99.90
58413;DHT22;44209;52.952;6.790;2023-04-10T07:31:15;9.90;99.90
58413;DHT22;44209;52.952;6.790;2023-04-10T07:33:44;9.90;99.90
58413;DHT22;44209;52.952;6.790;2023-04-10T07:36:10;10.00;99.90
58413;DHT22;44209;52.952;6.790;2023-04-10T07:38:35;10.00;99.90
58413;DHT22;44209;52.952;6.790;2023-04-10T07:41:02;10.10;99.90
58413;DHT22;44209;52.952;6.790;2023-04-10T07:43:28;10.20;99.90
58413;DHT22;44209;52.952;6.790;2023-04-10T07:45:55;10.20;99.90
58413;DHT22;44209;52.952;6.790;2023-04-10T07:48:21;10.30;99.90
58413;DHT22;44209;52.952;6.790;2023-04-10T07:50:46;10.40;99.90
58413;DHT22;44209;52.952;6.790;2023-04-10T07:53:12;10.60;99.90
58413;DHT22;44209;52.952;6.790;2023-04-10T07:55:39;10.80;99.90
58413;DHT22;44209;52.952;6.790;2023-04-10T07:58:05;10.90;99.90
58413;DHT22;44209;52.952;6.790;2023-04-10T08:00:31;11.00;99.90
58413;DHT22;44209;52.952;6.790;2023-04-10T08:02:57;11.20;99.90
58413;DHT22;44209;52.952;6.790;2023-04-10T08:05:23;11.30;99.90
58413;DHT22;44209;52.952;6.790;2023-04-10T08:07:49;11.40;99.90
58413;DHT22;44209;52.952;6.790;2023-04-10T08:10:14;11.50;99.90
58413;DHT22;44209;52.952;6.790;2023-04-10T08:12:40;11.70;99.90
58413;DHT22;44209;52.952;6.790;2023-04-10T08:15:06;11.80;99.90
58413;DHT22;44209;52.952;6.790;2023-04-10T08:17:32;12.00;99.90
58413;DHT22;44209;52.952;6.790;2023-04-10T08:19:58;12.10;99.90
58413;DHT22;44209;52.952;6.790;2023-04-10T08:22:23;12.20;99.90
58413;DHT22;44209;52.952;6.790;2023-04-10T08:24:49;12.30;99.90
58413;DHT22;44209;52.952;6.790;2023-04-10T08:27:15;12.50;99.90
58413;DHT22;44209;52.952;6.790;2023-04-10T08:29:41;12.60;99.90
58413;DHT22;44209;52.952;6.790;2023-04-10T08:32:08;12.80;99.90
58413;DHT22;44209;52.952;6.790;2023-04-10T08:34:33;13.00;99.90
58413;DHT22;44209;52.952;6.790;2023-04-10T08:36:59;13.00;99.90
58413;DHT22;44209;52.952;6.790;2023-04-10T08:39:25;13.10;99.90
58413;DHT22;44209;52.952;6.790;2023-04-10T08:41:50;13.10;99.90
58413;DHT22;44209;52.952;6.790;2023-04-10T08:44:16;13.10;99.90
58413;DHT22;44209;52.952;6.790;2023-04-10T08:46:43;13.20;99.90
58413;DHT22;44209;52.952;6.790;2023-04-10T08:49:16;13.10;99.90
58413;DHT22;44209;52.952;6.790;2023-04-10T08:51:59;13.10;99.90
58413;DHT22;44209;52.952;6.790;2023-04-10T08:54:37;13.10;99.90
58413;DHT22;44209;52.952;6.790;2023-04-10T08:57:06;13.20;99.90
58413;DHT22;44209;52.952;6.790;2023-04-10T08:59:32;13.30;99.90
58413;DHT22;44209;52.952;6.790;2023-04-10T09:01:58;13.40;99.90
58413;DHT22;44209;52.952;6.790;2023-04-10T09:04:25;13.40;99.90
58413;DHT22;44209;52.952;6.790;2023-04-10T09:06:52;13.30;99.90
58413;DHT22;44209;52.952;6.790;2023-04-10T09:09:18;13.30;99.90
58413;DHT22;44209;52.952;6.790;2023-04-10T09:14:22;13.50;99.90
58413;DHT22;44209;52.952;6.790;2023-04-10T09:16:48;13.70;99.90
58413;DHT22;44209;52.952;6.790;2023-04-10T09:19:28;14.00;99.90
58413;DHT22;44209;52.952;6.790;2023-04-10T09:21:55;14.00;99.90
58413;DHT22;44209;52.952;6.790;2023-04-10T09:24:22;14.00;99.90
58413;DHT22;44209;52.952;6.790;2023-04-10T09:26:48;14.10;99.90
58413;DHT22;44209;52.952;6.790;2023-04-10T09:29:14;14.30;99.90
58413;DHT22;44209;52.952;6.790;2023-04-10T09:31:41;14.50;99.90
58413;DHT22;44209;52.952;6.790;2023-04-10T09:34:19;14.60;99.90
58413;DHT22;44209;52.952;6.790;2023-04-10T09:36:57;14.80;99.90
58413;DHT22;44209;52.952;6.790;2023-04-10T09:39:35;14.90;99.90
58413;DHT22;44209;52.952;6.790;2023-04-10T09:42:03;14.90;99.90
58413;DHT22;44209;52.952;6.790;2023-04-10T09:44:37;14.80;99.90
58413;DHT22;44209;52.952;6.790;2023-04-10T09:49:45;14.80;99.90
58413;DHT22;44209;52.952;6.790;2023-04-10T09:52:27;14.80;99.90
58413;DHT22;44209;52.952;6.790;2023-04-10T09:54:58;14.80;99.90
58413;DHT22;44209;52.952;6.790;2023-04-10T09:57:29;14.80;99.90
58413;DHT22;44209;52.952;6.790;2023-04-10T09:59:57;14.70;99.90
58413;DHT22;44209;52.952;6.790;2023-04-10T10:02:25;14.80;99.90
58413;DHT22;44209;52.952;6.790;2023-04-10T10:04:53;14.80;99.90
58413;DHT22;44209;52.952;6.790;2023-04-10T10:07:20;14.80;99.90
58413;DHT22;44209;52.952;6.790;2023-04-10T10:09:48;14.90;99.90
58413;DHT22;44209;52.952;6.790;2023-04-10T10:12:17;15.00;99.90
58413;DHT22;44209;52.952;6.790;2023-04-10T10:17:23;15.30;99.90
58413;DHT22;44209;52.952;6.790;2023-04-10T10:20:08;15.40;99.90
58413;DHT22;44209;52.952;6.790;2023-04-10T10:22:36;15.40;93.70
58413;DHT22;44209;52.952;6.790;2023-04-10T10:25:02;15.40;97.10
58413;DHT22;44209;52.952;6.790;2023-04-10T10:27:30;15.50;96.90
58413;DHT22;44209;52.952;6.790;2023-04-10T10:29:59;15.60;98.80
58413;DHT22;44209;52.952;6.790;2023-04-10T10:32:26;15.80;96.80
58413;DHT22;44209;52.952;6.790;2023-04-10T10:34:52;16.00;96.40
58413;DHT22;44209;52.952;6.790;2023-04-10T10:37:19;16.10;95.00
58413;DHT22;44209;52.952;6.790;2023-04-10T10:40:13;16.10;91.10
58413;DHT22;44209;52.952;6.790;2023-04-10T10:42:55;16.20;85.50
58413;DHT22;44209;52.952;6.790;2023-04-10T10:45:59;16.10;80.50
58413;DHT22;44209;52.952;6.790;2023-04-10T10:48:27;16.00;77.70
58413;DHT22;44209;52.952;6.790;2023-04-10T10:50:54;15.90;83.00
58413;DHT22;44209;52.952;6.790;2023-04-10T10:53:39;15.90;83.10
58413;DHT22;44209;52.952;6.790;2023-04-10T11:01:17;15.90;84.20
58413;DHT22;44209;52.952;6.790;2023-04-10T11:03:43;15.90;89.20
58413;DHT22;44209;52.952;6.790;2023-04-10T11:06:18;15.90;89.80
58413;DHT22;44209;52.952;6.790;2023-04-10T11:08:46;15.80;83.80
58413;DHT22;44209;52.952;6.790;2023-04-10T11:16:39;15.60;79.50
58413;DHT22;44209;52.952;6.790;2023-04-10T11:19:07;15.60;84.70
58413;DHT22;44209;52.952;6.790;2023-04-10T11:21:34;15.70;89.30
58413;DHT22;44209;52.952;6.790;2023-04-10T11:26:37;15.60;87.10
58413;DHT22;44209;52.952;6.790;2023-04-10T11:31:37;15.60;90.00
58413;DHT22;44209;52.952;6.790;2023-04-10T11:34:07;15.70;88.10
58413;DHT22;44209;52.952;6.790;2023-04-10T11:36:39;15.80;87.30
58413;DHT22;44209;52.952;6.790;2023-04-10T11:41:36;15.90;84.40
58413;DHT22;44209;52.952;6.790;2023-04-10T11:44:11;15.90;83.40
58413;DHT22;44209;52.952;6.790;2023-04-10T11:46:38;15.90;83.70
58413;DHT22;44209;52.952;6.790;2023-04-10T11:49:07;15.90;87.10
58413;DHT22;44209;52.952;6.790;2023-04-10T11:51:37;15.90;84.30
58413;DHT22;44209;52.952;6.790;2023-04-10T11:54:14;15.90;85.20
58413;DHT22;44209;52.952;6.790;2023-04-10T11:56:41;15.90;84.00
58413;DHT22;44209;52.952;6.790;2023-04-10T11:59:07;15.90;82.20
58413;DHT22;44209;52.952;6.790;2023-04-10T12:01:41;15.90;80.40
58413;DHT22;44209;52.952;6.790;2023-04-10T12:04:18;15.90;77.70
58413;DHT22;44209;52.952;6.790;2023-04-10T12:06:51;16.00;76.00
58413;DHT22;44209;52.952;6.790;2023-04-10T12:09:19;16.00;77.60
58413;DHT22;44209;52.952;6.790;2023-04-10T12:11:58;16.00;76.00
58413;DHT22;44209;52.952;6.790;2023-04-10T12:14:36;16.10;76.60
58413;DHT22;44209;52.952;6.790;2023-04-10T12:17:04;16.30;77.50
58413;DHT22;44209;52.952;6.790;2023-04-10T12:19:30;16.40;76.90
58413;DHT22;44209;52.952;6.790;2023-04-10T12:21:58;16.60;76.60
58413;DHT22;44209;52.952;6.790;2023-04-10T12:24:43;16.70;76.60
58413;DHT22;44209;52.952;6.790;2023-04-10T12:29:49;17.10;74.90
58413;DHT22;44209;52.952;6.790;2023-04-10T12:32:16;17.10;74.50
58413;DHT22;44209;52.952;6.790;2023-04-10T12:34:52;17.10;73.10
58413;DHT22;44209;52.952;6.790;2023-04-10T12:37:19;17.20;73.00
58413;DHT22;44209;52.952;6.790;2023-04-10T12:39:45;17.30;74.00
58413;DHT22;44209;52.952;6.790;2023-04-10T12:42:15;17.40;74.00
58413;DHT22;44209;52.952;6.790;2023-04-10T12:44:51;17.60;74.70
58413;DHT22;44209;52.952;6.790;2023-04-10T12:47:17;17.60;71.70
58413;DHT22;44209;52.952;6.790;2023-04-10T12:50:05;17.40;72.00
58413;DHT22;44209;52.952;6.790;2023-04-10T12:52:31;17.30;73.20
58413;DHT22;44209;52.952;6.790;2023-04-10T12:57:39;16.90;73.20
58413;DHT22;44209;52.952;6.790;2023-04-10T13:00:06;16.80;74.70
58413;DHT22;44209;52.952;6.790;2023-04-10T13:02:37;16.70;74.90
58413;DHT22;44209;52.952;6.790;2023-04-10T13:05:04;16.70;75.60
58413;DHT22;44209;52.952;6.790;2023-04-10T13:07:29;16.70;76.70
58413;DHT22;44209;52.952;6.790;2023-04-10T13:09:56;16.60;76.70
58413;DHT22;44209;52.952;6.790;2023-04-10T13:12:21;16.60;77.30
58413;DHT22;44209;52.952;6.790;2023-04-10T13:14:48;16.60;77.80
58413;DHT22;44209;52.952;6.790;2023-04-10T13:17:13;16.50;78.10
58413;DHT22;44209;52.952;6.790;2023-04-10T13:19:39;16.50;80.80
58413;DHT22;44209;52.952;6.790;2023-04-10T13:22:05;16.50;80.60
58413;DHT22;44209;52.952;6.790;2023-04-10T13:24:31;16.50;81.30
58413;DHT22;44209;52.952;6.790;2023-04-10T13:26:56;16.50;82.00
58413;DHT22;44209;52.952;6.790;2023-04-10T13:29:25;16.50;82.30
58413;DHT22;44209;52.952;6.790;2023-04-10T13:31:51;16.50;80.70
58413;DHT22;44209;52.952;6.790;2023-04-10T13:34:17;16.50;80.00
58413;DHT22;44209;52.952;6.790;2023-04-10T13:36:42;16.50;84.40
58413;DHT22;44209;52.952;6.790;2023-04-10T13:39:08;16.40;83.00
58413;DHT22;44209;52.952;6.790;2023-04-10T13:41:34;16.40;82.80
58413;DHT22;44209;52.952;6.790;2023-04-10T13:44:00;16.40;80.30
58413;DHT22;44209;52.952;6.790;2023-04-10T13:46:25;16.40;81.90
58413;DHT22;44209;52.952;6.790;2023-04-10T13:48:51;16.40;81.50
58413;DHT22;44209;52.952;6.790;2023-04-10T13:51:17;16.40;82.00
58413;DHT22;44209;52.952;6.790;2023-04-10T13:53:42;16.40;85.00
58413;DHT22;44209;52.952;6.790;2023-04-10T13:56:08;16.30;82.50
58413;DHT22;44209;52.952;6.790;2023-04-10T13:58:34;16.30;83.30
58413;DHT22;44209;52.952;6.790;2023-04-10T14:01:00;16.20;83.40
58413;DHT22;44209;52.952;6.790;2023-04-10T14:03:26;16.20;83.30
58413;DHT22;44209;52.952;6.790;2023-04-10T14:05:52;16.20;84.00
58413;DHT22;44209;52.952;6.790;2023-04-10T14:08:19;16.20;85.90
58413;DHT22;44209;52.952;6.790;2023-04-10T14:10:45;16.10;86.90
58413;DHT22;44209;52.952;6.790;2023-04-10T14:13:16;16.10;90.20
58413;DHT22;44209;52.952;6.790;2023-04-10T14:15:41;16.10;90.20
58413;DHT22;44209;52.952;6.790;2023-04-10T14:18:07;16.00;87.60
58413;DHT22;44209;52.952;6.790;2023-04-10T14:20:33;16.00;85.20
58413;DHT22;44209;52.952;6.790;2023-04-10T14:22:58;15.90;86.00
58413;DHT22;44209;52.952;6.790;2023-04-10T14:25:24;15.90;88.50
58413;DHT22;44209;52.952;6.790;2023-04-10T14:27:50;15.80;88.20
58413;DHT22;44209;52.952;6.790;2023-04-10T14:30:16;15.80;89.10
58413;DHT22;44209;52.952;6.790;2023-04-10T14:32:41;15.70;90.00
58413;DHT22;44209;52.952;6.790;2023-04-10T14:35:08;15.70;90.50
58413;DHT22;44209;52.952;6.790;2023-04-10T14:37:34;15.60;92.00
58413;DHT22;44209;52.952;6.790;2023-04-10T14:40:00;15.60;94.10
58413;DHT22;44209;52.952;6.790;2023-04-10T14:42:25;15.60;93.00
58413;DHT22;44209;52.952;6.790;2023-04-10T14:44:52;15.60;93.80
58413;DHT22;44209;52.952;6.790;2023-04-10T14:47:17;15.50;93.40
58413;DHT22;44209;52.952;6.790;2023-04-10T14:49:43;15.50;94.30
58413;DHT22;44209;52.952;6.790;2023-04-10T14:52:09;15.40;97.10
58413;DHT22;44209;52.952;6.790;2023-04-10T14:54:35;15.40;96.30
58413;DHT22;44209;52.952;6.790;2023-04-10T14:57:00;15.40;95.20
58413;DHT22;44209;52.952;6.790;2023-04-10T14:59:26;15.40;94.70
58413;DHT22;44209;52.952;6.790;2023-04-10T15:01:52;15.30;97.40
58413;DHT22;44209;52.952;6.790;2023-04-10T15:04:18;15.30;99.90
58413;DHT22;44209;52.952;6.790;2023-04-10T15:06:44;15.20;99.90
58413;DHT22;44209;52.952;6.790;2023-04-10T15:09:10;15.20;99.90
58413;DHT22;44209;52.952;6.790;2023-04-10T15:11:36;15.10;99.90
58413;DHT22;44209;52.952;6.790;2023-04-10T15:14:01;15.10;99.90
58413;DHT22;44209;52.952;6.790;2023-04-10T15:16:28;15.10;99.90
58413;DHT22;44209;52.952;6.790;2023-04-10T15:18:54;15.00;99.90
58413;DHT22;44209;52.952;6.790;2023-04-10T15:21:21;15.00;99.90
58413;DHT22;44209;52.952;6.790;2023-04-10T15:23:47;15.00;99.90
58413;DHT22;44209;52.952;6.790;2023-04-10T15:26:14;15.00;99.90
58413;DHT22;44209;52.952;6.790;2023-04-10T15:28:41;15.00;99.90
58413;DHT22;44209;52.952;6.790;2023-04-10T15:31:10;15.00;99.90
58413;DHT22;44209;52.952;6.790;2023-04-10T15:33:36;14.90;99.90
58413;DHT22;44209;52.952;6.790;2023-04-10T15:36:04;14.80;99.90
58413;DHT22;44209;52.952;6.790;2023-04-10T15:38:34;14.60;99.90
58413;DHT22;44209;52.952;6.790;2023-04-10T15:41:00;14.50;99.90
58413;DHT22;44209;52.952;6.790;2023-04-10T15:43:26;14.40;99.90
58413;DHT22;44209;52.952;6.790;2023-04-10T15:45:52;14.30;99.90
58413;DHT22;44209;52.952;6.790;2023-04-10T15:48:18;14.30;99.90
58413;DHT22;44209;52.952;6.790;2023-04-10T15:50:46;14.30;99.90
58413;DHT22;44209;52.952;6.790;2023-04-10T15:53:12;14.20;99.90
58413;DHT22;44209;52.952;6.790;2023-04-10T15:55:39;14.20;99.90
58413;DHT22;44209;52.952;6.790;2023-04-10T15:58:05;14.20;99.90
58413;DHT22;44209;52.952;6.790;2023-04-10T16:00:30;14.20;99.90
58413;DHT22;44209;52.952;6.790;2023-04-10T16:02:56;14.20;99.90
58413;DHT22;44209;52.952;6.790;2023-04-10T16:05:22;14.30;99.90
58413;DHT22;44209;52.952;6.790;2023-04-10T16:07:47;14.30;99.90
58413;DHT22;44209;52.952;6.790;2023-04-10T16:10:13;14.30;99.90
58413;DHT22;44209;52.952;6.790;2023-04-10T16:12:40;14.30;99.90
58413;DHT22;44209;52.952;6.790;2023-04-10T16:15:06;14.30;99.90
58413;DHT22;44209;52.952;6.790;2023-04-10T16:17:35;14.30;99.90
58413;DHT22;44209;52.952;6.790;2023-04-10T16:20:07;14.20;99.90
58413;DHT22;44209;52.952;6.790;2023-04-10T16:22:32;14.10;99.90
58413;DHT22;44209;52.952;6.790;2023-04-10T16:24:59;14.10;99.90
58413;DHT22;44209;52.952;6.790;2023-04-10T16:27:25;14.00;99.90